sensor_id;sensor_type;location;lat;lon;timestamp;P1;durP1;ratioP1;P2;durP2;ratioP2
59207;SDS011;44977;53.132;6.408;2023-04-25T00:03:23;18.35;;;5.20;;
59207;SDS011;44977;53.132;6.408;2023-04-25T00:08:25;22.38;;;5.70;;
59207;SDS011;44977;53.132;6.408;2023-04-25T00:13:25;17.73;;;5.32;;
59207;SDS011;44977;53.132;6.408;2023-04-25T00:18:26;19.10;;;5.65;;
59207;SDS011;44977;53.132;6.408;2023-04-25T00:23:28;22.77;;;5.97;;
59207;SDS011;44977;53.132;6.408;2023-04-25T00:28:29;21.45;;;5.55;;
59207;SDS011;44977;53.132;6.408;2023-04-25T00:33:30;21.52;;;5.47;;
59207;SDS011;44977;53.132;6.408;2023-04-25T00:38:31;15.07;;;4.50;;
59207;SDS011;44977;53.132;6.408;2023-04-25T00:43:32;17.10;;;4.78;;
59207;SDS011;44977;53.132;6.408;2023-04-25T00:48:33;16.67;;;4.45;;
59207;SDS011;44977;53.132;6.408;2023-04-25T00:53:34;18.55;;;4.80;;
59207;SDS011;44977;53.132;6.408;2023-04-25T00:58:35;15.52;;;4.00;;
59207;SDS011;44977;53.132;6.408;2023-04-25T01:03:37;15.55;;;4.68;;
59207;SDS011;44977;53.132;6.408;2023-04-25T01:08:42;15.25;;;3.78;;
59207;SDS011;44977;53.132;6.408;2023-04-25T01:13:43;17.38;;;3.97;;
59207;SDS011;44977;53.132;6.408;2023-04-25T01:18:44;19.42;;;4.32;;
59207;SDS011;44977;53.132;6.408;2023-04-25T01:23:46;15.15;;;3.90;;
59207;SDS011;44977;53.132;6.408;2023-04-25T01:28:47;15.10;;;4.20;;
59207;SDS011;44977;53.132;6.408;2023-04-25T01:33:49;17.35;;;4.90;;
59207;SDS011;44977;53.132;6.408;2023-04-25T01:38:49;14.60;;;4.00;;
59207;SDS011;44977;53.132;6.408;2023-04-25T01:43:50;16.30;;;3.92;;
59207;SDS011;44977;53.132;6.408;2023-04-25T01:48:51;16.92;;;4.20;;
59207;SDS011;44977;53.132;6.408;2023-04-25T01:53:52;15.43;;;4.38;;
59207;SDS011;44977;53.132;6.408;2023-04-25T01:58:54;16.02;;;3.85;;
59207;SDS011;44977;53.132;6.408;2023-04-25T02:03:54;14.05;;;4.00;;
59207;SDS011;44977;53.132;6.408;2023-04-25T02:08:55;14.77;;;3.75;;
59207;SDS011;44977;53.132;6.408;2023-04-25T02:13:56;17.30;;;3.95;;
59207;SDS011;44977;53.132;6.408;2023-04-25T02:18:56;12.80;;;3.63;;
59207;SDS011;44977;53.132;6.408;2023-04-25T02:23:57;16.35;;;3.92;;
59207;SDS011;44977;53.132;6.408;2023-04-25T02:28:58;18.38;;;3.88;;
59207;SDS011;44977;53.132;6.408;2023-04-25T02:33:59;15.18;;;3.97;;
59207;SDS011;44977;53.132;6.408;2023-04-25T02:39:00;17.55;;;4.53;;
59207;SDS011;44977;53.132;6.408;2023-04-25T02:44:02;15.32;;;3.63;;
59207;SDS011;44977;53.132;6.408;2023-04-25T02:49:03;14.68;;;3.63;;
59207;SDS011;44977;53.132;6.408;2023-04-25T02:54:05;12.70;;;3.60;;
59207;SDS011;44977;53.132;6.408;2023-04-25T02:59:06;16.83;;;3.88;;
59207;SDS011;44977;53.132;6.408;2023-04-25T03:04:07;13.57;;;3.47;;
59207;SDS011;44977;53.132;6.408;2023-04-25T03:09:07;13.25;;;3.08;;
59207;SDS011;44977;53.132;6.408;2023-04-25T03:14:08;16.25;;;3.38;;
59207;SDS011;44977;53.132;6.408;2023-04-25T03:19:09;14.75;;;3.47;;
59207;SDS011;44977;53.132;6.408;2023-04-25T03:24:10;13.27;;;3.50;;
59207;SDS011;44977;53.132;6.408;2023-04-25T03:29:13;13.30;;;3.10;;
59207;SDS011;44977;53.132;6.408;2023-04-25T03:34:14;14.18;;;2.92;;
59207;SDS011;44977;53.132;6.408;2023-04-25T03:39:15;12.25;;;2.70;;
59207;SDS011;44977;53.132;6.408;2023-04-25T03:44:15;12.27;;;2.65;;
59207;SDS011;44977;53.132;6.408;2023-04-25T03:49:16;15.10;;;2.95;;
59207;SDS011;44977;53.132;6.408;2023-04-25T03:54:17;12.80;;;2.95;;
59207;SDS011;44977;53.132;6.408;2023-04-25T03:59:17;13.57;;;2.80;;
59207;SDS011;44977;53.132;6.408;2023-04-25T04:04:18;13.23;;;3.20;;
59207;SDS011;44977;53.132;6.408;2023-04-25T04:09:19;12.45;;;2.83;;
59207;SDS011;44977;53.132;6.408;2023-04-25T04:14:20;12.35;;;3.20;;
59207;SDS011;44977;53.132;6.408;2023-04-25T04:19:21;13.10;;;3.17;;
59207;SDS011;44977;53.132;6.408;2023-04-25T04:24:21;10.38;;;2.67;;
59207;SDS011;44977;53.132;6.408;2023-04-25T04:29:22;12.23;;;3.17;;
59207;SDS011;44977;53.132;6.408;2023-04-25T04:34:23;14.23;;;3.10;;
59207;SDS011;44977;53.132;6.408;2023-04-25T04:39:24;10.80;;;2.75;;
59207;SDS011;44977;53.132;6.408;2023-04-25T04:44:25;11.27;;;2.92;;
59207;SDS011;44977;53.132;6.408;2023-04-25T04:49:26;11.98;;;3.13;;
59207;SDS011;44977;53.132;6.408;2023-04-25T04:54:27;12.68;;;3.15;;
59207;SDS011;44977;53.132;6.408;2023-04-25T04:59:28;13.40;;;3.40;;
59207;SDS011;44977;53.132;6.408;2023-04-25T05:04:28;12.88;;;2.90;;
59207;SDS011;44977;53.132;6.408;2023-04-25T05:09:29;14.32;;;3.42;;
59207;SDS011;44977;53.132;6.408;2023-04-25T05:14:30;13.07;;;3.40;;
59207;SDS011;44977;53.132;6.408;2023-04-25T05:19:31;13.43;;;3.88;;
59207;SDS011;44977;53.132;6.408;2023-04-25T05:24:32;14.63;;;3.22;;
59207;SDS011;44977;53.132;6.408;2023-04-25T05:29:33;11.32;;;3.20;;
59207;SDS011;44977;53.132;6.408;2023-04-25T05:34:34;13.00;;;3.17;;
59207;SDS011;44977;53.132;6.408;2023-04-25T05:39:34;13.38;;;3.50;;
59207;SDS011;44977;53.132;6.408;2023-04-25T05:44:35;12.57;;;3.47;;
59207;SDS011;44977;53.132;6.408;2023-04-25T05:49:36;12.00;;;3.38;;
59207;SDS011;44977;53.132;6.408;2023-04-25T05:54:36;9.30;;;2.92;;
59207;SDS011;44977;53.132;6.408;2023-04-25T05:59:37;14.98;;;3.17;;
59207;SDS011;44977;53.132;6.408;2023-04-25T06:04:38;15.07;;;3.70;;
59207;SDS011;44977;53.132;6.408;2023-04-25T06:09:38;12.60;;;2.88;;
59207;SDS011;44977;53.132;6.408;2023-04-25T06:14:40;10.38;;;2.60;;
59207;SDS011;44977;53.132;6.408;2023-04-25T06:19:41;9.70;;;2.42;;
59207;SDS011;44977;53.132;6.408;2023-04-25T06:24:41;12.60;;;2.63;;
59207;SDS011;44977;53.132;6.408;2023-04-25T06:29:42;9.77;;;2.28;;
59207;SDS011;44977;53.132;6.408;2023-04-25T06:34:43;10.07;;;2.17;;
59207;SDS011;44977;53.132;6.408;2023-04-25T06:39:44;10.35;;;2.40;;
59207;SDS011;44977;53.132;6.408;2023-04-25T06:44:44;8.80;;;2.10;;
59207;SDS011;44977;53.132;6.408;2023-04-25T06:49:45;9.05;;;2.10;;
59207;SDS011;44977;53.132;6.408;2023-04-25T06:54:46;8.63;;;2.05;;
59207;SDS011;44977;53.132;6.408;2023-04-25T06:59:46;10.15;;;2.35;;
59207;SDS011;44977;53.132;6.408;2023-04-25T07:04:47;11.82;;;2.60;;
59207;SDS011;44977;53.132;6.408;2023-04-25T07:09:48;10.77;;;2.42;;
59207;SDS011;44977;53.132;6.408;2023-04-25T07:14:48;10.65;;;2.60;;
59207;SDS011;44977;53.132;6.408;2023-04-25T07:19:49;11.80;;;2.33;;
59207;SDS011;44977;53.132;6.408;2023-04-25T07:24:50;8.68;;;2.38;;
59207;SDS011;44977;53.132;6.408;2023-04-25T07:29:50;11.35;;;2.40;;
59207;SDS011;44977;53.132;6.408;2023-04-25T07:34:51;10.70;;;2.42;;
59207;SDS011;44977;53.132;6.408;2023-04-25T07:39:52;8.05;;;1.90;;
59207;SDS011;44977;53.132;6.408;2023-04-25T07:44:53;10.48;;;2.00;;
59207;SDS011;44977;53.132;6.408;2023-04-25T07:49:53;10.48;;;1.90;;
59207;SDS011;44977;53.132;6.408;2023-04-25T07:54:54;8.93;;;1.67;;
59207;SDS011;44977;53.132;6.408;2023-04-25T07:59:55;8.73;;;1.73;;
59207;SDS011;44977;53.132;6.408;2023-04-25T08:04:55;8.82;;;2.10;;
59207;SDS011;44977;53.132;6.408;2023-04-25T08:09:56;11.68;;;2.00;;
59207;SDS011;44977;53.132;6.408;2023-04-25T08:14:57;6.88;;;1.70;;
59207;SDS011;44977;53.132;6.408;2023-04-25T08:19:58;9.23;;;2.40;;
59207;SDS011;44977;53.132;6.408;2023-04-25T08:24:58;5.47;;;1.48;;
59207;SDS011;44977;53.132;6.408;2023-04-25T08:29:59;5.65;;;1.25;;
59207;SDS011;44977;53.132;6.408;2023-04-25T08:35:00;6.97;;;1.30;;
59207;SDS011;44977;53.132;6.408;2023-04-25T08:40:01;7.93;;;1.55;;
59207;SDS011;44977;53.132;6.408;2023-04-25T08:45:07;5.15;;;1.30;;
59207;SDS011;44977;53.132;6.408;2023-04-25T08:50:08;8.13;;;2.10;;
59207;SDS011;44977;53.132;6.408;2023-04-25T08:55:10;5.47;;;1.88;;
59207;SDS011;44977;53.132;6.408;2023-04-25T09:00:13;7.85;;;1.50;;
59207;SDS011;44977;53.132;6.408;2023-04-25T09:05:14;5.63;;;1.33;;
59207;SDS011;44977;53.132;6.408;2023-04-25T09:10:15;7.00;;;1.50;;
59207;SDS011;44977;53.132;6.408;2023-04-25T09:15:15;7.28;;;1.75;;
59207;SDS011;44977;53.132;6.408;2023-04-25T09:20:16;9.05;;;1.85;;
59207;SDS011;44977;53.132;6.408;2023-04-25T09:25:16;8.60;;;1.73;;
59207;SDS011;44977;53.132;6.408;2023-04-25T09:30:17;7.45;;;1.73;;
59207;SDS011;44977;53.132;6.408;2023-04-25T09:35:25;10.57;;;2.80;;
59207;SDS011;44977;53.132;6.408;2023-04-25T09:45:29;12.63;;;3.15;;
59207;SDS011;44977;53.132;6.408;2023-04-25T09:50:31;11.95;;;2.30;;
59207;SDS011;44977;53.132;6.408;2023-04-25T09:55:32;8.00;;;1.77;;
59207;SDS011;44977;53.132;6.408;2023-04-25T10:00:34;7.45;;;1.90;;
59207;SDS011;44977;53.132;6.408;2023-04-25T10:05:35;8.82;;;1.90;;
59207;SDS011;44977;53.132;6.408;2023-04-25T10:10:37;11.43;;;2.00;;
59207;SDS011;44977;53.132;6.408;2023-04-25T10:15:40;9.18;;;2.05;;
59207;SDS011;44977;53.132;6.408;2023-04-25T10:20:41;8.15;;;1.90;;
59207;SDS011;44977;53.132;6.408;2023-04-25T10:25:42;8.38;;;2.15;;
59207;SDS011;44977;53.132;6.408;2023-04-25T10:31:17;8.73;;;2.30;;
59207;SDS011;44977;53.132;6.408;2023-04-25T10:36:23;9.63;;;1.90;;
59207;SDS011;44977;53.132;6.408;2023-04-25T10:41:27;8.53;;;2.20;;
59207;SDS011;44977;53.132;6.408;2023-04-25T10:46:29;9.70;;;1.90;;
59207;SDS011;44977;53.132;6.408;2023-04-25T10:51:31;8.15;;;2.00;;
59207;SDS011;44977;53.132;6.408;2023-04-25T10:56:42;9.48;;;2.10;;
59207;SDS011;44977;53.132;6.408;2023-04-25T11:01:46;9.88;;;2.17;;
59207;SDS011;44977;53.132;6.408;2023-04-25T11:12:03;10.25;;;2.08;;
59207;SDS011;44977;53.132;6.408;2023-04-25T11:17:05;7.93;;;2.00;;
59207;SDS011;44977;53.132;6.408;2023-04-25T11:22:06;10.50;;;1.80;;
59207;SDS011;44977;53.132;6.408;2023-04-25T11:27:08;7.90;;;1.98;;
59207;SDS011;44977;53.132;6.408;2023-04-25T11:32:08;10.70;;;2.30;;
59207;SDS011;44977;53.132;6.408;2023-04-25T11:37:10;6.53;;;1.40;;
59207;SDS011;44977;53.132;6.408;2023-04-25T11:42:12;7.22;;;1.92;;
59207;SDS011;44977;53.132;6.408;2023-04-25T11:47:13;8.20;;;1.67;;
59207;SDS011;44977;53.132;6.408;2023-04-25T11:52:14;7.55;;;1.67;;
59207;SDS011;44977;53.132;6.408;2023-04-25T11:57:18;10.52;;;1.95;;
59207;SDS011;44977;53.132;6.408;2023-04-25T12:02:25;9.32;;;2.00;;
59207;SDS011;44977;53.132;6.408;2023-04-25T12:07:29;9.93;;;1.80;;
59207;SDS011;44977;53.132;6.408;2023-04-25T12:12:34;8.43;;;1.60;;
59207;SDS011;44977;53.132;6.408;2023-04-25T12:17:35;7.80;;;1.70;;
59207;SDS011;44977;53.132;6.408;2023-04-25T12:22:37;8.18;;;1.85;;
59207;SDS011;44977;53.132;6.408;2023-04-25T12:27:44;8.23;;;1.67;;
59207;SDS011;44977;53.132;6.408;2023-04-25T12:32:45;10.57;;;2.13;;
59207;SDS011;44977;53.132;6.408;2023-04-25T12:37:45;8.25;;;2.15;;
59207;SDS011;44977;53.132;6.408;2023-04-25T12:42:47;8.52;;;1.70;;
59207;SDS011;44977;53.132;6.408;2023-04-25T12:47:47;13.15;;;2.25;;
59207;SDS011;44977;53.132;6.408;2023-04-25T12:52:48;10.05;;;2.08;;
59207;SDS011;44977;53.132;6.408;2023-04-25T12:57:49;9.43;;;1.98;;
59207;SDS011;44977;53.132;6.408;2023-04-25T13:02:49;7.22;;;1.70;;
59207;SDS011;44977;53.132;6.408;2023-04-25T13:07:50;6.82;;;1.60;;
59207;SDS011;44977;53.132;6.408;2023-04-25T13:12:51;11.10;;;1.80;;
59207;SDS011;44977;53.132;6.408;2023-04-25T13:17:52;7.38;;;1.67;;
59207;SDS011;44977;53.132;6.408;2023-04-25T13:22:52;10.95;;;2.10;;
59207;SDS011;44977;53.132;6.408;2023-04-25T13:27:53;11.07;;;2.38;;
59207;SDS011;44977;53.132;6.408;2023-04-25T13:32:54;9.25;;;2.28;;
59207;SDS011;44977;53.132;6.408;2023-04-25T13:37:56;11.85;;;2.40;;
59207;SDS011;44977;53.132;6.408;2023-04-25T13:42:57;8.07;;;1.80;;
59207;SDS011;44977;53.132;6.408;2023-04-25T13:47:59;8.27;;;1.83;;
59207;SDS011;44977;53.132;6.408;2023-04-25T13:53:00;11.93;;;2.53;;
59207;SDS011;44977;53.132;6.408;2023-04-25T13:58:01;8.73;;;2.13;;
59207;SDS011;44977;53.132;6.408;2023-04-25T14:03:07;13.55;;;2.10;;
59207;SDS011;44977;53.132;6.408;2023-04-25T14:08:08;5.60;;;1.55;;
59207;SDS011;44977;53.132;6.408;2023-04-25T14:13:09;8.02;;;2.10;;
59207;SDS011;44977;53.132;6.408;2023-04-25T14:18:10;7.13;;;1.98;;
59207;SDS011;44977;53.132;6.408;2023-04-25T14:23:10;6.65;;;1.70;;
59207;SDS011;44977;53.132;6.408;2023-04-25T14:28:11;8.20;;;1.95;;
59207;SDS011;44977;53.132;6.408;2023-04-25T14:33:12;8.48;;;1.88;;
59207;SDS011;44977;53.132;6.408;2023-04-25T14:38:13;8.98;;;2.25;;
59207;SDS011;44977;53.132;6.408;2023-04-25T14:43:15;10.52;;;2.13;;
59207;SDS011;44977;53.132;6.408;2023-04-25T14:48:15;7.55;;;1.73;;
59207;SDS011;44977;53.132;6.408;2023-04-25T14:53:19;7.40;;;1.85;;
59207;SDS011;44977;53.132;6.408;2023-04-25T14:58:19;9.75;;;2.17;;
59207;SDS011;44977;53.132;6.408;2023-04-25T15:03:20;8.25;;;2.05;;
59207;SDS011;44977;53.132;6.408;2023-04-25T15:08:21;9.88;;;2.25;;
59207;SDS011;44977;53.132;6.408;2023-04-25T15:13:22;10.35;;;2.20;;
59207;SDS011;44977;53.132;6.408;2023-04-25T15:18:23;8.05;;;1.70;;
59207;SDS011;44977;53.132;6.408;2023-04-25T15:23:23;10.73;;;2.47;;
59207;SDS011;44977;53.132;6.408;2023-04-25T15:28:24;7.47;;;1.60;;
59207;SDS011;44977;53.132;6.408;2023-04-25T15:33:25;8.98;;;2.00;;
59207;SDS011;44977;53.132;6.408;2023-04-25T15:38:26;9.48;;;2.30;;
59207;SDS011;44977;53.132;6.408;2023-04-25T15:43:26;10.93;;;2.20;;
59207;SDS011;44977;53.132;6.408;2023-04-25T15:48:27;9.13;;;2.17;;
59207;SDS011;44977;53.132;6.408;2023-04-25T15:53:28;8.93;;;1.60;;
59207;SDS011;44977;53.132;6.408;2023-04-25T15:58:29;8.45;;;2.10;;
59207;SDS011;44977;53.132;6.408;2023-04-25T16:03:30;7.05;;;1.38;;
59207;SDS011;44977;53.132;6.408;2023-04-25T16:08:31;7.72;;;1.58;;
59207;SDS011;44977;53.132;6.408;2023-04-25T16:13:34;6.97;;;1.45;;
59207;SDS011;44977;53.132;6.408;2023-04-25T16:18:35;8.20;;;1.98;;
59207;SDS011;44977;53.132;6.408;2023-04-25T16:23:36;10.80;;;2.03;;
59207;SDS011;44977;53.132;6.408;2023-04-25T16:28:37;9.07;;;1.83;;
59207;SDS011;44977;53.132;6.408;2023-04-25T16:33:37;9.90;;;1.90;;
59207;SDS011;44977;53.132;6.408;2023-04-25T16:38:38;10.75;;;2.10;;
59207;SDS011;44977;53.132;6.408;2023-04-25T16:43:39;7.72;;;2.00;;
59207;SDS011;44977;53.132;6.408;2023-04-25T16:48:40;9.80;;;1.95;;
59207;SDS011;44977;53.132;6.408;2023-04-25T16:53:41;8.93;;;2.00;;
59207;SDS011;44977;53.132;6.408;2023-04-25T16:58:42;11.63;;;2.15;;
59207;SDS011;44977;53.132;6.408;2023-04-25T17:03:43;8.73;;;1.95;;
59207;SDS011;44977;53.132;6.408;2023-04-25T17:08:44;9.52;;;2.35;;
59207;SDS011;44977;53.132;6.408;2023-04-25T17:13:44;9.30;;;1.90;;
59207;SDS011;44977;53.132;6.408;2023-04-25T17:18:45;11.60;;;2.42;;
59207;SDS011;44977;53.132;6.408;2023-04-25T17:23:46;10.10;;;2.05;;
59207;SDS011;44977;53.132;6.408;2023-04-25T17:28:47;11.00;;;2.40;;
59207;SDS011;44977;53.132;6.408;2023-04-25T17:33:48;6.93;;;1.90;;
59207;SDS011;44977;53.132;6.408;2023-04-25T17:38:49;7.32;;;1.73;;
59207;SDS011;44977;53.132;6.408;2023-04-25T17:43:50;7.10;;;1.58;;
59207;SDS011;44977;53.132;6.408;2023-04-25T17:48:51;9.25;;;1.90;;
59207;SDS011;44977;53.132;6.408;2023-04-25T17:53:52;9.73;;;2.15;;
59207;SDS011;44977;53.132;6.408;2023-04-25T17:58:52;8.73;;;2.45;;
59207;SDS011;44977;53.132;6.408;2023-04-25T18:03:53;9.50;;;2.17;;
59207;SDS011;44977;53.132;6.408;2023-04-25T18:08:54;10.50;;;2.45;;
59207;SDS011;44977;53.132;6.408;2023-04-25T18:13:56;11.13;;;2.47;;
59207;SDS011;44977;53.132;6.408;2023-04-25T18:18:56;8.85;;;1.90;;
59207;SDS011;44977;53.132;6.408;2023-04-25T18:24:04;8.57;;;1.75;;
59207;SDS011;44977;53.132;6.408;2023-04-25T18:29:11;6.13;;;1.52;;
59207;SDS011;44977;53.132;6.408;2023-04-25T18:34:12;7.38;;;1.95;;
59207;SDS011;44977;53.132;6.408;2023-04-25T18:39:15;7.78;;;2.22;;
59207;SDS011;44977;53.132;6.408;2023-04-25T18:44:16;8.45;;;2.30;;
59207;SDS011;44977;53.132;6.408;2023-04-25T18:49:16;10.77;;;2.55;;
59207;SDS011;44977;53.132;6.408;2023-04-25T18:54:18;9.38;;;2.53;;
59207;SDS011;44977;53.132;6.408;2023-04-25T18:59:18;10.18;;;2.78;;
59207;SDS011;44977;53.132;6.408;2023-04-25T19:04:19;8.80;;;2.25;;
59207;SDS011;44977;53.132;6.408;2023-04-25T19:09:20;9.30;;;2.67;;
59207;SDS011;44977;53.132;6.408;2023-04-25T19:14:21;11.38;;;2.92;;
59207;SDS011;44977;53.132;6.408;2023-04-25T19:19:22;10.73;;;2.90;;
59207;SDS011;44977;53.132;6.408;2023-04-25T19:24:23;12.25;;;3.15;;
59207;SDS011;44977;53.132;6.408;2023-04-25T19:29:23;8.93;;;2.67;;
59207;SDS011;44977;53.132;6.408;2023-04-25T19:34:24;9.05;;;2.60;;
59207;SDS011;44977;53.132;6.408;2023-04-25T19:39:25;11.50;;;2.88;;
59207;SDS011;44977;53.132;6.408;2023-04-25T19:44:25;9.15;;;2.70;;
59207;SDS011;44977;53.132;6.408;2023-04-25T19:49:26;11.35;;;2.85;;
59207;SDS011;44977;53.132;6.408;2023-04-25T19:54:27;10.02;;;2.95;;
59207;SDS011;44977;53.132;6.408;2023-04-25T19:59:28;11.45;;;3.80;;
59207;SDS011;44977;53.132;6.408;2023-04-25T20:04:29;12.57;;;5.15;;
59207;SDS011;44977;53.132;6.408;2023-04-25T20:09:30;11.27;;;5.05;;
59207;SDS011;44977;53.132;6.408;2023-04-25T20:14:31;13.13;;;5.43;;
59207;SDS011;44977;53.132;6.408;2023-04-25T20:19:32;13.18;;;4.68;;
59207;SDS011;44977;53.132;6.408;2023-04-25T20:24:33;12.27;;;4.80;;
59207;SDS011;44977;53.132;6.408;2023-04-25T20:29:34;13.20;;;3.80;;
59207;SDS011;44977;53.132;6.408;2023-04-25T20:34:35;10.68;;;3.80;;
59207;SDS011;44977;53.132;6.408;2023-04-25T20:39:36;9.60;;;3.53;;
59207;SDS011;44977;53.132;6.408;2023-04-25T20:44:37;12.98;;;3.85;;
59207;SDS011;44977;53.132;6.408;2023-04-25T20:49:39;10.45;;;3.80;;
59207;SDS011;44977;53.132;6.408;2023-04-25T20:54:40;11.43;;;4.05;;
59207;SDS011;44977;53.132;6.408;2023-04-25T20:59:41;10.25;;;3.80;;
59207;SDS011;44977;53.132;6.408;2023-04-25T21:04:42;10.10;;;3.58;;
59207;SDS011;44977;53.132;6.408;2023-04-25T21:09:45;10.90;;;3.75;;
59207;SDS011;44977;53.132;6.408;2023-04-25T21:14:46;11.20;;;3.50;;
59207;SDS011;44977;53.132;6.408;2023-04-25T21:19:47;10.73;;;3.90;;
59207;SDS011;44977;53.132;6.408;2023-04-25T21:24:51;13.02;;;4.03;;
59207;SDS011;44977;53.132;6.408;2023-04-25T21:29:53;10.27;;;3.88;;
59207;SDS011;44977;53.132;6.408;2023-04-25T21:34:53;11.88;;;3.85;;
59207;SDS011;44977;53.132;6.408;2023-04-25T21:39:54;12.10;;;3.92;;
59207;SDS011;44977;53.132;6.408;2023-04-25T21:44:55;16.15;;;4.82;;
59207;SDS011;44977;53.132;6.408;2023-04-25T21:49:55;11.57;;;4.32;;
59207;SDS011;44977;53.132;6.408;2023-04-25T21:54:56;13.40;;;4.18;;
59207;SDS011;44977;53.132;6.408;2023-04-25T21:59:57;11.18;;;4.20;;
59207;SDS011;44977;53.132;6.408;2023-04-25T22:04:58;11.82;;;3.53;;
59207;SDS011;44977;53.132;6.408;2023-04-25T22:09:58;11.25;;;3.22;;
59207;SDS011;44977;53.132;6.408;2023-04-25T22:14:59;8.40;;;3.28;;
59207;SDS011;44977;53.132;6.408;2023-04-25T22:20:00;11.23;;;3.05;;
59207;SDS011;44977;53.132;6.408;2023-04-25T22:25:01;9.27;;;2.95;;
59207;SDS011;44977;53.132;6.408;2023-04-25T22:30:02;10.63;;;3.20;;
59207;SDS011;44977;53.132;6.408;2023-04-25T22:35:03;11.05;;;3.38;;
59207;SDS011;44977;53.132;6.408;2023-04-25T22:40:06;9.80;;;3.63;;
59207;SDS011;44977;53.132;6.408;2023-04-25T22:45:08;9.32;;;3.50;;
59207;SDS011;44977;53.132;6.408;2023-04-25T22:50:10;10.90;;;3.55;;
59207;SDS011;44977;53.132;6.408;2023-04-25T22:55:12;11.90;;;3.60;;
59207;SDS011;44977;53.132;6.408;2023-04-25T23:00:13;9.68;;;3.63;;
59207;SDS011;44977;53.132;6.408;2023-04-25T23:05:18;10.45;;;3.70;;
59207;SDS011;44977;53.132;6.408;2023-04-25T23:10:19;10.70;;;3.60;;
59207;SDS011;44977;53.132;6.408;2023-04-25T23:15:20;11.45;;;3.40;;
59207;SDS011;44977;53.132;6.408;2023-04-25T23:20:21;9.07;;;3.78;;
59207;SDS011;44977;53.132;6.408;2023-04-25T23:25:22;12.80;;;3.88;;
59207;SDS011;44977;53.132;6.408;2023-04-25T23:30:23;9.60;;;3.38;;
59207;SDS011;44977;53.132;6.408;2023-04-25T23:35:25;10.15;;;3.30;;
59207;SDS011;44977;53.132;6.408;2023-04-25T23:40:26;10.90;;;3.60;;
59207;SDS011;44977;53.132;6.408;2023-04-25T23:45:28;9.95;;;3.30;;
59207;SDS011;44977;53.132;6.408;2023-04-25T23:50:29;14.20;;;3.60;;
59207;SDS011;44977;53.132;6.408;2023-04-25T23:55:30;9.25;;;3.53;;
